createdAt,value
2019-04-30T00:01:58.952Z,33.23
2019-04-30T00:04:40.214Z,34.67
2019-04-30T00:07:10.359Z,33.63
2019-04-30T00:09:40.888Z,30.57
2019-04-30T00:12:11.751Z,30.13
2019-04-30T00:14:48.084Z,30.60
2019-04-30T00:17:20.157Z,31.40
2019-04-30T00:19:55.985Z,34.10
2019-04-30T00:22:31.752Z,34.63
2019-04-30T00:24:56.203Z,33.40
2019-04-30T00:27:30.194Z,34.43
2019-04-30T00:30:00.416Z,32.47
2019-04-30T00:32:31.021Z,33.40
2019-04-30T00:35:01.892Z,33.20
2019-04-30T00:37:32.378Z,34.00
2019-04-30T00:40:05.600Z,33.10
2019-04-30T00:42:36.283Z,33.07
2019-04-30T00:45:09.963Z,33.77
2019-04-30T00:47:46.474Z,32.87
2019-04-30T00:50:15.283Z,33.17
2019-04-30T00:52:45.785Z,36.33
2019-04-30T00:55:16.461Z,34.77
2019-04-30T00:57:47.590Z,37.23
2019-04-30T01:00:25.350Z,34.60
2019-04-30T01:03:07.879Z,35.67
2019-04-30T01:05:35.263Z,36.00
2019-04-30T01:08:07.100Z,37.97
2019-04-30T01:10:37.726Z,35.00
2019-04-30T01:13:11.980Z,35.80
2019-04-30T01:15:44.042Z,30.57
2019-04-30T01:18:12.552Z,27.87
2019-04-30T01:20:43.055Z,28.17
2019-04-30T01:23:15.892Z,25.30
2019-04-30T01:25:49.953Z,22.67
2019-04-30T01:28:22.746Z,21.30
2019-04-30T01:30:53.845Z,22.53
2019-04-30T01:33:22.799Z,20.73
2019-04-30T01:35:53.625Z,19.13
2019-04-30T01:38:24.106Z,18.80
2019-04-30T01:40:55.610Z,19.30
2019-04-30T01:43:31.549Z,18.80
2019-04-30T01:46:01.975Z,18.20
2019-04-30T01:48:30.449Z,18.10
2019-04-30T01:51:01.280Z,17.63
2019-04-30T01:53:31.718Z,17.40
2019-04-30T01:56:33.156Z,17.83
2019-04-30T01:59:09.178Z,17.57
2019-04-30T02:01:41.615Z,17.40
2019-04-30T02:04:12.534Z,17.90
2019-04-30T02:06:43.006Z,16.47
2019-04-30T02:09:13.428Z,16.67
2019-04-30T02:11:43.906Z,16.10
2019-04-30T02:14:23.895Z,13.63
2019-04-30T02:16:54.383Z,13.47
2019-04-30T02:19:24.853Z,14.40
2019-04-30T02:21:55.332Z,13.90
2019-04-30T02:24:25.815Z,12.53
2019-04-30T02:27:04.213Z,12.63
2019-04-30T02:29:35.790Z,10.83
2019-04-30T02:32:06.290Z,11.33
2019-04-30T02:34:44.378Z,9.93
2019-04-30T02:37:21.035Z,11.30
2019-04-30T02:39:50.840Z,10.63
2019-04-30T02:42:22.690Z,9.73
2019-04-30T02:44:53.094Z,9.60
2019-04-30T02:47:23.592Z,10.70
2019-04-30T02:50:10.549Z,10.67
2019-04-30T02:52:29.303Z,9.97
2019-04-30T02:55:00.221Z,10.77
2019-04-30T02:57:30.686Z,11.10
2019-04-30T03:00:20.741Z,11.07
2019-04-30T03:02:51.653Z,10.50
2019-04-30T03:05:22.122Z,11.60
2019-04-30T03:07:53.465Z,11.20
2019-04-30T03:10:24.235Z,11.37
2019-04-30T03:12:55.933Z,11.07
2019-04-30T03:15:30.691Z,11.23
2019-04-30T03:18:20.048Z,12.37
2019-04-30T03:21:29.043Z,11.97
2019-04-30T03:24:00.649Z,11.67
2019-04-30T03:26:31.302Z,11.90
2019-04-30T03:29:04.578Z,12.73
2019-04-30T03:31:35.073Z,11.97
2019-04-30T03:34:05.557Z,12.37
2019-04-30T03:36:36.586Z,13.00
2019-04-30T03:39:10.399Z,13.47
2019-04-30T03:41:41.533Z,15.43
2019-04-30T03:44:21.783Z,14.00
2019-04-30T03:46:44.266Z,14.90
2019-04-30T03:49:14.729Z,15.27
2019-04-30T03:51:45.561Z,16.03
2019-04-30T03:54:16.074Z,15.53
2019-04-30T03:56:49.898Z,16.57
2019-04-30T03:59:21.048Z,17.50
2019-04-30T04:02:01.956Z,19.50
2019-04-30T04:04:52.478Z,19.33
2019-04-30T04:07:40.959Z,19.47
2019-04-30T04:10:30.338Z,17.77
2019-04-30T04:13:03.330Z,17.40
2019-04-30T04:15:36.124Z,17.77
2019-04-30T04:18:10.664Z,15.93
2019-04-30T04:20:46.012Z,15.30
2019-04-30T04:23:19.230Z,15.63
2019-04-30T04:25:51.318Z,16.10
2019-04-30T04:28:24.590Z,15.97
2019-04-30T04:30:55.035Z,13.43
2019-04-30T04:33:29.648Z,12.87
2019-04-30T04:36:00.376Z,11.60
2019-04-30T04:38:30.831Z,9.60
2019-04-30T04:41:03.000Z,9.67
2019-04-30T04:43:33.424Z,8.80
2019-04-30T04:46:04.358Z,9.00
2019-04-30T04:48:34.827Z,8.90
2019-04-30T04:51:05.368Z,10.07
2019-04-30T04:53:50.004Z,9.10
2019-04-30T04:56:20.222Z,9.07
2019-04-30T04:58:50.758Z,8.83
2019-04-30T05:01:21.255Z,8.73
2019-04-30T05:03:51.692Z,9.10
2019-04-30T05:06:24.647Z,9.90
2019-04-30T05:08:55.093Z,8.73
2019-04-30T05:11:29.339Z,9.00
2019-04-30T05:14:00.267Z,8.87
2019-04-30T05:16:30.797Z,8.63
2019-04-30T05:19:01.828Z,8.67
2019-04-30T05:21:41.978Z,8.23
2019-04-30T05:24:04.514Z,7.73
2019-04-30T05:26:38.663Z,8.50
2019-04-30T05:29:09.585Z,8.10
2019-04-30T05:31:40.417Z,8.80
2019-04-30T05:34:10.890Z,8.00
2019-04-30T05:36:41.369Z,7.93
2019-04-30T05:39:11.840Z,7.73
2019-04-30T05:41:42.272Z,7.20
2019-04-30T05:44:13.251Z,7.77
2019-04-30T05:46:47.168Z,7.60
2019-04-30T05:49:18.892Z,7.90
2019-04-30T05:51:55.537Z,7.97
2019-04-30T05:54:22.125Z,7.47
2019-04-30T05:56:52.533Z,8.40
2019-04-30T05:59:24.279Z,9.53
2019-04-30T06:01:54.754Z,9.13
2019-04-30T06:04:25.181Z,8.80
2019-04-30T06:06:55.677Z,8.30
2019-04-30T06:09:54.660Z,8.13
2019-04-30T06:12:44.021Z,8.27
2019-04-30T06:15:21.716Z,9.10
2019-04-30T06:18:00.277Z,7.40
2019-04-30T06:20:25.607Z,8.43
2019-04-30T06:22:59.685Z,7.60
2019-04-30T06:25:37.249Z,6.93
2019-04-30T06:28:03.890Z,7.23
2019-04-30T06:30:34.331Z,7.57
2019-04-30T06:33:04.833Z,6.77
2019-04-30T06:35:35.546Z,7.03
2019-04-30T06:38:08.796Z,6.63
2019-04-30T06:40:39.258Z,6.80
2019-04-30T06:43:09.698Z,5.70
2019-04-30T06:45:42.239Z,6.17
2019-04-30T06:48:12.309Z,6.07
2019-04-30T06:50:49.184Z,6.23
2019-04-30T06:53:20.506Z,5.53
2019-04-30T06:55:51.534Z,5.73
2019-04-30T06:58:22.091Z,6.00
2019-04-30T07:00:52.770Z,6.20
2019-04-30T07:03:23.437Z,6.63
2019-04-30T07:06:08.392Z,7.27
2019-04-30T07:08:59.527Z,7.90
2019-04-30T07:11:33.928Z,7.37
2019-04-30T07:14:04.492Z,6.37
2019-04-30T07:16:37.193Z,6.07
2019-04-30T07:19:09.324Z,6.67
2019-04-30T07:21:45.359Z,5.73
2019-04-30T07:24:16.955Z,5.90
2019-04-30T07:27:01.015Z,6.33
2019-04-30T07:29:35.164Z,5.97
2019-04-30T07:32:06.094Z,5.90
2019-04-30T07:34:37.277Z,6.30
2019-04-30T07:37:17.042Z,6.33
2019-04-30T07:39:41.541Z,5.43
2019-04-30T07:42:15.243Z,5.47
2019-04-30T07:44:52.519Z,6.33
2019-04-30T07:47:23.097Z,6.03
2019-04-30T07:50:00.458Z,6.20
2019-04-30T07:52:33.295Z,5.70
2019-04-30T07:55:01.814Z,5.10
2019-04-30T07:57:40.430Z,5.93
2019-04-30T08:00:11.207Z,5.70
2019-04-30T08:02:50.499Z,5.47
2019-04-30T08:05:33.168Z,5.43
2019-04-30T08:08:20.628Z,5.17
2019-04-30T08:10:39.392Z,5.47
2019-04-30T08:13:14.385Z,5.40
2019-04-30T08:15:49.778Z,5.40
2019-04-30T08:18:19.555Z,5.00
2019-04-30T08:20:50.418Z,5.43
2019-04-30T08:23:34.077Z,5.20
2019-04-30T08:25:58.735Z,5.77
2019-04-30T08:28:31.097Z,6.07
2019-04-30T08:31:06.157Z,6.27
2019-04-30T08:33:37.556Z,5.77
2019-04-30T08:36:11.324Z,6.20
2019-04-30T08:38:42.056Z,6.10
2019-04-30T08:41:12.630Z,5.50
2019-04-30T08:43:49.480Z,5.83
2019-04-30T08:46:21.917Z,5.47
2019-04-30T08:48:53.898Z,5.77
2019-04-30T08:51:24.440Z,5.90
2019-04-30T08:53:55.568Z,6.10
2019-04-30T08:56:34.487Z,6.30
2019-04-30T08:59:05.163Z,6.87
2019-04-30T09:01:40.059Z,6.13
2019-04-30T09:04:17.688Z,6.00
2019-04-30T09:06:54.132Z,6.30
2019-04-30T09:09:26.235Z,6.70
2019-04-30T09:11:56.721Z,6.67
2019-04-30T09:14:31.227Z,7.03
2019-04-30T09:17:05.081Z,6.43
2019-04-30T09:19:38.649Z,6.77
2019-04-30T09:22:15.125Z,6.53
2019-04-30T09:24:45.079Z,6.23
2019-04-30T09:27:16.088Z,6.50
2019-04-30T09:29:49.189Z,6.37
2019-04-30T09:32:19.976Z,6.37
2019-04-30T09:34:50.905Z,6.27
2019-04-30T09:37:21.315Z,6.03
2019-04-30T09:39:53.804Z,6.07
2019-04-30T09:42:24.292Z,5.90
2019-04-30T09:44:57.173Z,6.50
2019-04-30T09:47:29.576Z,6.47
2019-04-30T09:49:59.785Z,6.43
2019-04-30T09:52:31.042Z,6.47
2019-04-30T09:55:04.030Z,6.20
2019-04-30T09:57:34.451Z,5.67
2019-04-30T10:00:09.405Z,5.97
2019-04-30T10:02:40.685Z,6.07
2019-04-30T10:05:15.736Z,5.90
2019-04-30T10:07:49.218Z,6.03
2019-04-30T10:10:22.737Z,5.47
2019-04-30T10:12:56.442Z,5.63
2019-04-30T10:15:35.627Z,5.20
2019-04-30T10:18:09.320Z,5.13
2019-04-30T10:20:51.851Z,5.60
2019-04-30T10:23:22.316Z,5.17
2019-04-30T10:25:52.979Z,5.43
2019-04-30T10:28:23.489Z,5.47
2019-04-30T10:30:54.178Z,6.07
2019-04-30T10:33:31.938Z,5.50
2019-04-30T10:36:01.503Z,5.60
2019-04-30T10:38:35.550Z,5.03
2019-04-30T10:41:05.808Z,5.33
2019-04-30T10:43:36.274Z,6.03
2019-04-30T10:46:07.209Z,5.97
2019-04-30T10:48:37.999Z,5.80
2019-04-30T10:51:13.124Z,5.73
2019-04-30T10:53:44.023Z,5.57
2019-04-30T10:56:14.558Z,4.93
2019-04-30T10:58:54.182Z,5.57
2019-04-30T11:01:26.852Z,5.83
2019-04-30T11:03:57.342Z,5.40
2019-04-30T11:06:30.001Z,6.23
2019-04-30T11:09:01.661Z,4.83
2019-04-30T11:11:35.128Z,5.10
2019-04-30T11:14:06.220Z,5.37
2019-04-30T11:16:37.225Z,5.30
2019-04-30T11:19:09.418Z,5.33
2019-04-30T11:21:43.472Z,5.23
2019-04-30T11:24:19.579Z,5.13
2019-04-30T11:26:51.299Z,5.00
2019-04-30T11:29:25.630Z,4.97
2019-04-30T11:32:05.435Z,4.77
2019-04-30T11:34:36.072Z,5.50
2019-04-30T11:37:07.773Z,5.30
2019-04-30T11:39:38.886Z,5.20
2019-04-30T11:42:09.731Z,5.43
2019-04-30T11:44:40.388Z,6.07
2019-04-30T11:47:52.634Z,5.57
2019-04-30T11:50:17.267Z,5.40
2019-04-30T11:53:05.794Z,5.23
2019-04-30T11:55:26.162Z,4.90
2019-04-30T11:57:56.651Z,5.20
2019-04-30T12:00:33.143Z,5.07
2019-04-30T12:03:09.063Z,5.67
2019-04-30T12:05:39.676Z,6.47
2019-04-30T12:08:26.515Z,5.43
2019-04-30T12:11:03.553Z,4.90
2019-04-30T12:13:34.766Z,5.87
2019-04-30T12:16:08.740Z,5.53
2019-04-30T12:18:44.090Z,5.43
2019-04-30T12:21:15.823Z,5.27
2019-04-30T12:23:46.885Z,5.77
2019-04-30T12:26:21.164Z,5.70
2019-04-30T12:28:51.898Z,5.70
2019-04-30T12:31:29.893Z,5.37
2019-04-30T12:34:00.387Z,5.00
2019-04-30T12:36:31.096Z,5.07
2019-04-30T12:39:05.305Z,4.97
2019-04-30T12:41:40.687Z,4.97
2019-04-30T12:44:11.734Z,5.47
2019-04-30T12:46:48.619Z,5.00
2019-04-30T12:49:23.842Z,5.93
2019-04-30T12:52:10.420Z,5.77
2019-04-30T12:54:49.555Z,5.50
2019-04-30T12:57:39.095Z,6.77
2019-04-30T13:00:11.087Z,5.57
2019-04-30T13:02:42.183Z,5.33
2019-04-30T13:05:14.178Z,5.47
2019-04-30T13:07:45.572Z,5.07
2019-04-30T13:10:26.798Z,4.83
2019-04-30T13:12:58.561Z,4.70
2019-04-30T13:15:30.106Z,4.83
2019-04-30T13:18:00.493Z,4.87
2019-04-30T13:20:32.421Z,5.10
2019-04-30T13:23:11.043Z,4.83
2019-04-30T13:25:50.568Z,4.70
2019-04-30T13:28:17.503Z,4.73
2019-04-30T13:30:51.461Z,4.03
2019-04-30T13:33:42.297Z,4.30
2019-04-30T13:36:25.453Z,4.40
2019-04-30T13:39:12.769Z,3.93
2019-04-30T13:41:51.028Z,4.00
2019-04-30T13:44:29.407Z,4.23
2019-04-30T13:47:03.639Z,4.07
2019-04-30T13:49:35.635Z,4.57
2019-04-30T13:52:08.856Z,3.87
2019-04-30T13:54:39.908Z,4.33
2019-04-30T13:57:10.643Z,5.00
2019-04-30T13:59:41.088Z,4.87
2019-04-30T14:02:15.089Z,5.10
2019-04-30T14:05:03.242Z,4.50
2019-04-30T14:08:04.717Z,5.20
2019-04-30T14:10:40.778Z,4.93
2019-04-30T14:13:30.446Z,5.43
2019-04-30T14:16:04.904Z,4.47
2019-04-30T14:18:35.558Z,4.27
2019-04-30T14:21:06.477Z,4.40
2019-04-30T14:23:42.111Z,4.73
2019-04-30T14:26:24.852Z,4.50
2019-04-30T14:29:00.455Z,4.70
2019-04-30T14:31:30.902Z,5.10
2019-04-30T14:34:01.396Z,4.30
2019-04-30T14:36:31.847Z,4.60
2019-04-30T14:39:13.418Z,5.30
2019-04-30T14:41:35.341Z,4.50
2019-04-30T14:44:25.836Z,4.87
2019-04-30T14:47:50.555Z,5.23
2019-04-30T14:50:33.711Z,5.23
2019-04-30T14:53:13.903Z,5.37
2019-04-30T14:56:13.089Z,5.37
2019-04-30T14:59:26.456Z,5.97
2019-04-30T15:02:01.501Z,5.50
2019-04-30T15:04:32.199Z,5.33
2019-04-30T15:07:09.683Z,5.30
2019-04-30T15:09:46.488Z,5.17
2019-04-30T15:12:19.232Z,103.70
2019-04-30T15:14:52.589Z,45.37
2019-04-30T15:17:28.890Z,10.73
2019-04-30T15:19:59.455Z,5.80
2019-04-30T15:22:31.190Z,6.30
2019-04-30T15:25:05.354Z,5.93
2019-04-30T15:27:45.054Z,36.83
2019-04-30T15:30:10.834Z,19.37
2019-04-30T15:32:43.801Z,25.47
2019-04-30T15:35:14.879Z,214.07
2019-04-30T15:37:48.627Z,43.70
2019-04-30T15:40:22.035Z,48.87
2019-04-30T15:42:54.179Z,121.40
2019-04-30T15:45:25.685Z,81.00
2019-04-30T15:47:56.239Z,30.80
2019-04-30T15:50:29.561Z,25.87
2019-04-30T15:53:09.349Z,18.83
2019-04-30T15:55:32.364Z,7.63
2019-04-30T15:58:18.646Z,7.40
2019-04-30T16:00:49.444Z,9.37
2019-04-30T16:03:27.447Z,26.07
2019-04-30T16:06:03.503Z,8.50
2019-04-30T16:08:45.984Z,5.60
2019-04-30T16:11:41.762Z,8.73
2019-04-30T16:14:34.621Z,9.67
2019-04-30T16:17:20.686Z,6.27
2019-04-30T16:19:51.265Z,5.73
2019-04-30T16:22:22.292Z,9.47
2019-04-30T16:24:54.647Z,11.40
2019-04-30T16:27:25.359Z,8.43
2019-04-30T16:29:59.520Z,5.77
2019-04-30T16:32:29.974Z,5.20
2019-04-30T16:35:00.677Z,4.93
2019-04-30T16:37:39.926Z,5.07
2019-04-30T16:40:12.747Z,4.67
2019-04-30T16:42:49.571Z,5.17
2019-04-30T16:45:19.642Z,5.00
2019-04-30T16:47:50.144Z,5.47
2019-04-30T16:50:20.723Z,5.40
2019-04-30T16:52:57.235Z,4.57
2019-04-30T16:55:27.928Z,5.40
2019-04-30T16:58:15.211Z,6.83
2019-04-30T17:00:49.133Z,6.30
2019-04-30T17:03:34.404Z,6.73
2019-04-30T17:06:15.743Z,8.43
2019-04-30T17:08:58.620Z,9.47
2019-04-30T17:11:48.713Z,19.07
2019-04-30T17:14:33.266Z,94.60
2019-04-30T17:17:11.325Z,51.67
2019-04-30T17:19:49.276Z,152.10
2019-04-30T17:22:22.252Z,81.40
2019-04-30T17:24:57.807Z,158.73
2019-04-30T17:27:29.377Z,70.23
2019-04-30T17:30:01.216Z,26.00
2019-04-30T17:32:31.906Z,21.67
2019-04-30T17:35:04.241Z,23.80
2019-04-30T17:37:41.471Z,19.60
2019-04-30T17:40:14.512Z,10.33
2019-04-30T17:43:09.817Z,14.70
2019-04-30T17:45:40.350Z,7.50
2019-04-30T17:48:12.333Z,7.30
2019-04-30T17:50:44.299Z,7.60
2019-04-30T17:53:19.085Z,8.43
2019-04-30T17:55:52.185Z,8.70
2019-04-30T17:58:22.814Z,7.50
2019-04-30T18:01:06.962Z,7.67
2019-04-30T18:03:41.223Z,8.57
2019-04-30T18:06:16.644Z,8.97
2019-04-30T18:08:52.017Z,8.40
2019-04-30T18:11:30.788Z,8.50
2019-04-30T18:14:09.794Z,7.93
2019-04-30T18:16:50.795Z,7.97
2019-04-30T18:19:35.336Z,8.17
2019-04-30T18:22:23.096Z,7.07
2019-04-30T18:25:23.362Z,7.17
2019-04-30T18:27:59.493Z,6.43
2019-04-30T18:30:36.088Z,7.70
2019-04-30T18:33:09.682Z,7.47
2019-04-30T18:35:41.225Z,6.73
2019-04-30T18:38:17.805Z,7.70
2019-04-30T18:40:59.446Z,7.13
2019-04-30T18:43:30.660Z,7.23
2019-04-30T18:46:04.842Z,7.53
2019-04-30T18:48:39.357Z,9.83
2019-04-30T18:51:32.890Z,10.30
2019-04-30T18:54:02.845Z,10.63
2019-04-30T18:56:34.725Z,11.67
2019-04-30T18:59:12.087Z,12.90
2019-04-30T19:01:47.472Z,14.80
2019-04-30T19:04:44.506Z,15.60
2019-04-30T19:07:40.681Z,16.17
2019-04-30T19:10:34.202Z,17.43
2019-04-30T19:13:27.484Z,17.20
2019-04-30T19:16:23.041Z,17.17
2019-04-30T19:19:14.809Z,18.50
2019-04-30T19:21:48.658Z,18.03
2019-04-30T19:24:21.304Z,17.03
2019-04-30T19:26:55.281Z,15.93
2019-04-30T19:29:27.348Z,16.23
2019-04-30T19:32:09.444Z,16.10
2019-04-30T19:34:43.519Z,17.63
2019-04-30T19:37:21.178Z,19.30
2019-04-30T19:39:53.428Z,20.43
2019-04-30T19:42:24.418Z,18.67
2019-04-30T19:44:59.744Z,18.53
2019-04-30T19:47:30.830Z,18.43
2019-04-30T19:50:01.759Z,17.83
2019-04-30T19:52:34.536Z,19.00
2019-04-30T19:55:05.522Z,20.40
2019-04-30T19:57:43.566Z,22.63
2019-04-30T20:00:11.687Z,23.23
2019-04-30T20:03:08.915Z,22.47
2019-04-30T20:05:44.697Z,23.00
2019-04-30T20:08:22.519Z,25.50
2019-04-30T20:10:59.392Z,24.53
2019-04-30T20:13:37.011Z,26.57
2019-04-30T20:16:09.784Z,28.00
2019-04-30T20:18:50.429Z,26.13
2019-04-30T20:21:45.334Z,28.07
2019-04-30T20:24:05.462Z,31.33
2019-04-30T20:26:36.193Z,34.97
2019-04-30T20:29:25.989Z,36.40
2019-04-30T20:31:59.002Z,37.73
2019-04-30T20:34:31.356Z,44.50
2019-04-30T20:37:04.381Z,45.50
2019-04-30T20:39:42.182Z,43.17
2019-04-30T20:42:18.351Z,42.67
2019-04-30T20:44:53.538Z,39.97
2019-04-30T20:47:24.702Z,38.10
2019-04-30T20:49:57.282Z,33.17
2019-04-30T20:52:32.420Z,32.73
2019-04-30T20:55:04.091Z,34.70
2019-04-30T20:57:43.159Z,36.97
2019-04-30T21:00:17.876Z,37.53
2019-04-30T21:02:49.713Z,39.93
2019-04-30T21:05:23.093Z,42.33
2019-04-30T21:07:59.096Z,50.43
2019-04-30T21:10:29.870Z,47.40
2019-04-30T21:13:11.333Z,45.30
2019-04-30T21:15:49.465Z,44.80
2019-04-30T21:18:19.827Z,48.73
2019-04-30T21:20:50.359Z,48.47
2019-04-30T21:23:24.744Z,51.13
2019-04-30T21:26:03.095Z,47.20
2019-04-30T21:28:33.541Z,50.00
2019-04-30T21:31:22.876Z,55.90
2019-04-30T21:34:01.149Z,57.53
2019-04-30T21:36:34.083Z,56.77
2019-04-30T21:39:08.839Z,53.67
2019-04-30T21:41:39.594Z,51.23
2019-04-30T21:44:10.345Z,50.90
2019-04-30T21:46:40.800Z,44.50
2019-04-30T21:49:11.261Z,46.07
2019-04-30T21:52:00.946Z,47.80
2019-04-30T21:54:38.774Z,49.90
2019-04-30T21:57:10.252Z,51.00
2019-04-30T21:59:41.798Z,54.37
2019-04-30T22:02:12.431Z,54.53
2019-04-30T22:04:46.302Z,57.77
2019-04-30T22:07:19.496Z,58.50
2019-04-30T22:09:53.141Z,62.73
2019-04-30T22:12:31.202Z,65.17
2019-04-30T22:15:04.392Z,61.73
2019-04-30T22:17:40.717Z,55.30
2019-04-30T22:20:19.133Z,56.90
2019-04-30T22:22:50.939Z,56.67
2019-04-30T22:25:29.192Z,65.67
2019-04-30T22:28:07.402Z,67.20
2019-04-30T22:30:44.160Z,67.83
2019-04-30T22:33:15.129Z,71.27
2019-04-30T22:35:58.860Z,71.37
2019-04-30T22:38:32.550Z,72.07
2019-04-30T22:41:05.648Z,77.13
2019-04-30T22:43:35.252Z,77.57
2019-04-30T22:46:11.672Z,82.83
2019-04-30T22:48:42.186Z,79.77
2019-04-30T22:51:19.393Z,84.20
2019-04-30T22:53:50.272Z,79.67
2019-04-30T22:56:21.144Z,82.00
2019-04-30T22:58:53.339Z,79.93
2019-04-30T23:01:41.204Z,78.90
2019-04-30T23:04:15.717Z,79.10
2019-04-30T23:06:55.250Z,75.50
2019-04-30T23:09:30.061Z,71.10
2019-04-30T23:12:05.134Z,70.00
2019-04-30T23:14:35.683Z,73.27
2019-04-30T23:17:06.615Z,72.40
2019-04-30T23:19:37.025Z,76.73
2019-04-30T23:22:07.498Z,77.63
2019-04-30T23:24:42.242Z,75.63
2019-04-30T23:27:22.467Z,73.97
2019-04-30T23:29:48.324Z,74.13
2019-04-30T23:32:19.517Z,73.37
2019-04-30T23:34:53.316Z,77.27
2019-04-30T23:37:26.164Z,82.03
2019-04-30T23:39:57.190Z,77.93
2019-04-30T23:42:30.500Z,79.60
2019-04-30T23:45:05.298Z,77.27
2019-04-30T23:47:40.204Z,74.40
2019-04-30T23:50:10.625Z,76.07
2019-04-30T23:52:48.978Z,77.77
2019-04-30T23:55:19.485Z,76.00
2019-04-30T23:57:50.014Z,75.53
